VIR158 KBOS-EGLL
Flight info
| Callsign | VIR158 |
|---|---|
| Flight time | 6h 7m |
| Altitude | 39000 |
| Route | LBSTA8 LBSTA DCT ALLEX N565B TUDEP/M081F390 DCT 52N050W 53N040W 54N030W 54N020W DCT MALOT DCT GISTI/N0466F390 DCT ENJEX DCT AVZAC DCT INFEC DCT JETZI DCT AMFUL DCT ORZEB P2 SIRIC |
| Aircraft | A339/H-SADE1E2E3GHIJ3J5M1P2RWXY/LB2D1 |
Departure
| Time | 2026-05-06 15:33 |
|---|---|
| Airport | Boston Logan International Airport (KBOS) |
Arrival
| Time | 2026-05-06 21:40 |
|---|---|
| Airport | London Heathrow Airport (EGLL) |
| Time | Latitude | Longitude | Altitude | Speed | Heading |
|---|---|---|---|---|---|
| 2026-05-06 15:01 | 42.37137 | -71.02501 | 31 ft | 0 kts | 226° |
| 2026-05-06 15:21 | 42.37138 | -71.02499 | 31 ft | 2 kts | 226° |
| 2026-05-06 15:22 | 42.37156 | -71.02474 | 31 ft | 4 kts | 226° |
| 2026-05-06 15:22 | 42.37165 | -71.02461 | 31 ft | 0 kts | 226° |
| 2026-05-06 15:25 | 42.37165 | -71.02462 | 31 ft | 0 kts | 226° |
| 2026-05-06 15:25 | 42.37162 | -71.02466 | 31 ft | 0 kts | 226° |
| 2026-05-06 15:26 | 42.37138 | -71.02468 | 31 ft | 4 kts | 163° |
| 2026-05-06 15:26 | 42.37134 | -71.02396 | 31 ft | 16 kts | 92° |
| 2026-05-06 15:26 | 42.37150 | -71.02245 | 31 ft | 14 kts | 49° |
| 2026-05-06 15:26 | 42.37223 | -71.02143 | 31 ft | 19 kts | 62° |
| 2026-05-06 15:27 | 42.37222 | -71.01971 | 31 ft | 18 kts | 103° |
| 2026-05-06 15:27 | 42.37160 | -71.01822 | 31 ft | 18 kts | 122° |
| 2026-05-06 15:27 | 42.37094 | -71.01680 | 31 ft | 18 kts | 120° |
| 2026-05-06 15:27 | 42.36987 | -71.01538 | 31 ft | 25 kts | 136° |
| 2026-05-06 15:28 | 42.36888 | -71.01401 | 31 ft | 16 kts | 135° |
| 2026-05-06 15:28 | 42.36853 | -71.01276 | 31 ft | 17 kts | 70° |
| 2026-05-06 15:28 | 42.36943 | -71.01155 | 31 ft | 19 kts | 37° |
| 2026-05-06 15:28 | 42.37062 | -71.01063 | 31 ft | 20 kts | 26° |
| 2026-05-06 15:29 | 42.37186 | -71.00978 | 31 ft | 20 kts | 29° |
| 2026-05-06 15:29 | 42.37315 | -71.00904 | 31 ft | 20 kts | 21° |
| 2026-05-06 15:29 | 42.37446 | -71.00840 | 31 ft | 20 kts | 19° |
| 2026-05-06 15:29 | 42.37580 | -71.00780 | 31 ft | 20 kts | 17° |
| 2026-05-06 15:30 | 42.37713 | -71.00723 | 31 ft | 20 kts | 27° |
| 2026-05-06 15:30 | 42.37808 | -71.00645 | 31 ft | 12 kts | 21° |
| 2026-05-06 15:30 | 42.37829 | -71.00582 | 31 ft | 0 kts | 88° |
| 2026-05-06 15:31 | 42.37828 | -71.00574 | 31 ft | 6 kts | 92° |
| 2026-05-06 15:31 | 42.37807 | -71.00504 | 31 ft | 7 kts | 141° |
| 2026-05-06 15:31 | 42.37759 | -71.00496 | 31 ft | 7 kts | 182° |
| 2026-05-06 15:32 | 42.37732 | -71.00505 | 31 ft | 0 kts | 194° |
| 2026-05-06 15:32 | 42.37621 | -71.00548 | 31 ft | 46 kts | 203° |
| 2026-05-06 15:32 | 42.37104 | -71.00807 | 31 ft | 111 kts | 199° |
| 2026-05-06 15:32 | 42.36221 | -71.01232 | 31 ft | 159 kts | 200° |
| 2026-05-06 15:33 | 42.35121 | -71.01777 | 367 ft | 174 kts | 199° |
| 2026-05-06 15:33 | 42.33913 | -71.02002 | 785 ft | 179 kts | 169° |
| 2026-05-06 15:33 | 42.32863 | -71.01132 | 1297 ft | 186 kts | 129° |
| 2026-05-06 15:33 | 42.32263 | -70.99556 | 1722 ft | 193 kts | 117° |
| 2026-05-06 15:34 | 42.31607 | -70.97985 | 1800 ft | 189 kts | 137° |
| 2026-05-06 15:34 | 42.30932 | -70.96418 | 1694 ft | 204 kts | 114° |
| 2026-05-06 15:34 | 42.30790 | -70.94459 | 1785 ft | 215 kts | 95° |
| 2026-05-06 15:34 | 42.30939 | -70.92411 | 1710 ft | 223 kts | 89° |
| 2026-05-06 15:35 | 42.31320 | -70.90273 | 1728 ft | 249 kts | 73° |
| 2026-05-06 15:35 | 42.31990 | -70.88021 | 1797 ft | 265 kts | 70° |
| 2026-05-06 15:35 | 42.32648 | -70.85686 | 1900 ft | 273 kts | 74° |
| 2026-05-06 15:35 | 42.33101 | -70.83236 | 1868 ft | 271 kts | 81° |
| 2026-05-06 15:36 | 42.33504 | -70.80734 | 2091 ft | 274 kts | 80° |
| 2026-05-06 15:36 | 42.33939 | -70.78188 | 2257 ft | 278 kts | 79° |
| 2026-05-06 15:36 | 42.34787 | -70.75804 | 2416 ft | 292 kts | 52° |
| 2026-05-06 15:36 | 42.36403 | -70.74129 | 2645 ft | 296 kts | 22° |
| 2026-05-06 15:37 | 42.38358 | -70.73242 | 2830 ft | 299 kts | 10° |
| 2026-05-06 15:37 | 42.40385 | -70.72625 | 3061 ft | 299 kts | 7° |
| 2026-05-06 15:37 | 42.42431 | -70.71979 | 3251 ft | 304 kts | 10° |
| 2026-05-06 15:37 | 42.44457 | -70.71244 | 3520 ft | 306 kts | 11° |
| 2026-05-06 15:38 | 42.46519 | -70.70607 | 3864 ft | 303 kts | 7° |
| 2026-05-06 15:38 | 42.48590 | -70.69996 | 4088 ft | 305 kts | 8° |
| 2026-05-06 15:38 | 42.50674 | -70.69369 | 4267 ft | 309 kts | 9° |
| 2026-05-06 15:38 | 42.52771 | -70.68717 | 4569 ft | 310 kts | 9° |
| 2026-05-06 15:39 | 42.54863 | -70.68050 | 4880 ft | 309 kts | 9° |
| 2026-05-06 15:39 | 42.56966 | -70.67402 | 5130 ft | 310 kts | 9° |
| 2026-05-06 15:39 | 42.59080 | -70.66759 | 5383 ft | 312 kts | 8° |
| 2026-05-06 15:39 | 42.61208 | -70.66113 | 5612 ft | 314 kts | 9° |
| 2026-05-06 15:40 | 42.63309 | -70.65484 | 5887 ft | 313 kts | 8° |
| 2026-05-06 15:40 | 42.65442 | -70.64841 | 6140 ft | 314 kts | 9° |
| 2026-05-06 15:40 | 42.67594 | -70.64172 | 6622 ft | 318 kts | 8° |
| 2026-05-06 15:40 | 42.69775 | -70.63650 | 7211 ft | 319 kts | 5° |
| 2026-05-06 15:41 | 42.71973 | -70.63167 | 7780 ft | 322 kts | 5° |
| 2026-05-06 15:41 | 42.74192 | -70.62684 | 8347 ft | 324 kts | 5° |
| 2026-05-06 15:41 | 42.76433 | -70.62193 | 8899 ft | 328 kts | 5° |
| 2026-05-06 15:41 | 42.78685 | -70.61624 | 9413 ft | 333 kts | 13° |
| 2026-05-06 15:42 | 42.80776 | -70.60223 | 9941 ft | 339 kts | 38° |
| 2026-05-06 15:42 | 42.82418 | -70.57905 | 10326 ft | 346 kts | 58° |
| 2026-05-06 15:42 | 42.83629 | -70.55055 | 10500 ft | 360 kts | 66° |
| 2026-05-06 15:42 | 42.84804 | -70.51958 | 10663 ft | 376 kts | 65° |
| 2026-05-06 15:43 | 42.86096 | -70.48783 | 10926 ft | 388 kts | 63° |
| 2026-05-06 15:43 | 42.87494 | -70.45610 | 11438 ft | 393 kts | 61° |
| 2026-05-06 15:43 | 42.88958 | -70.42439 | 11963 ft | 396 kts | 60° |
| 2026-05-06 15:43 | 42.90459 | -70.39257 | 12420 ft | 401 kts | 60° |
| 2026-05-06 15:44 | 42.91977 | -70.36055 | 12973 ft | 402 kts | 59° |
| 2026-05-06 15:44 | 42.93500 | -70.32849 | 13517 ft | 404 kts | 59° |
| 2026-05-06 15:44 | 42.95027 | -70.29611 | 14015 ft | 407 kts | 59° |
| 2026-05-06 15:44 | 42.96539 | -70.26391 | 14471 ft | 410 kts | 59° |
| 2026-05-06 15:45 | 42.98079 | -70.23108 | 15007 ft | 411 kts | 59° |
| 2026-05-06 15:45 | 42.99625 | -70.19807 | 15485 ft | 414 kts | 59° |
| 2026-05-06 15:45 | 43.01180 | -70.16490 | 15961 ft | 416 kts | 59° |
| 2026-05-06 15:45 | 43.02745 | -70.13151 | 16418 ft | 418 kts | 59° |
| 2026-05-06 15:46 | 43.04316 | -70.09791 | 16867 ft | 421 kts | 58° |
| 2026-05-06 15:46 | 43.05895 | -70.06410 | 17322 ft | 423 kts | 58° |
| 2026-05-06 15:46 | 43.07460 | -70.03060 | 17798 ft | 425 kts | 58° |
| 2026-05-06 15:46 | 43.09052 | -69.99643 | 18231 ft | 427 kts | 58° |
| 2026-05-06 15:47 | 43.10653 | -69.96201 | 18674 ft | 428 kts | 58° |
| 2026-05-06 15:47 | 43.12252 | -69.92759 | 19165 ft | 430 kts | 58° |
| 2026-05-06 15:47 | 43.13861 | -69.89288 | 19559 ft | 433 kts | 58° |
| 2026-05-06 15:47 | 43.15481 | -69.85789 | 19925 ft | 437 kts | 58° |
| 2026-05-06 15:48 | 43.17112 | -69.82271 | 20353 ft | 439 kts | 58° |
| 2026-05-06 15:48 | 43.18755 | -69.78731 | 20765 ft | 442 kts | 58° |
| 2026-05-06 15:48 | 43.20403 | -69.75170 | 21175 ft | 444 kts | 58° |
| 2026-05-06 15:48 | 43.22035 | -69.71626 | 21552 ft | 446 kts | 58° |
| 2026-05-06 15:49 | 43.23694 | -69.68016 | 21915 ft | 449 kts | 58° |
| 2026-05-06 15:49 | 43.25368 | -69.64381 | 22289 ft | 452 kts | 58° |
| 2026-05-06 15:49 | 43.27049 | -69.60726 | 22689 ft | 454 kts | 58° |
| 2026-05-06 15:49 | 43.28737 | -69.57047 | 23093 ft | 457 kts | 58° |
| 2026-05-06 15:50 | 43.30434 | -69.53346 | 23504 ft | 459 kts | 58° |
| 2026-05-06 15:50 | 43.32142 | -69.49624 | 23849 ft | 462 kts | 58° |
| 2026-05-06 15:50 | 43.33860 | -69.45881 | 24219 ft | 464 kts | 57° |
| 2026-05-06 15:50 | 43.35583 | -69.42117 | 24608 ft | 467 kts | 58° |
| 2026-05-06 15:51 | 43.37288 | -69.38380 | 24979 ft | 469 kts | 58° |
| 2026-05-06 15:51 | 43.39021 | -69.34577 | 25338 ft | 470 kts | 57° |
| 2026-05-06 15:51 | 43.40761 | -69.30755 | 25687 ft | 473 kts | 57° |
| 2026-05-06 15:51 | 43.42506 | -69.26912 | 26055 ft | 475 kts | 57° |
| 2026-05-06 15:52 | 43.44260 | -69.23048 | 26385 ft | 477 kts | 57° |
| 2026-05-06 15:52 | 43.46020 | -69.19170 | 26755 ft | 478 kts | 57° |
| 2026-05-06 15:52 | 43.47784 | -69.15277 | 27053 ft | 481 kts | 57° |
| 2026-05-06 15:52 | 43.49559 | -69.11351 | 27372 ft | 483 kts | 57° |
| 2026-05-06 15:53 | 43.51337 | -69.07413 | 27700 ft | 485 kts | 57° |
| 2026-05-06 15:53 | 43.53097 | -69.03512 | 27999 ft | 487 kts | 57° |
| 2026-05-06 15:53 | 43.54885 | -68.99541 | 28320 ft | 488 kts | 57° |
| 2026-05-06 15:53 | 43.56679 | -68.95548 | 28586 ft | 491 kts | 57° |
| 2026-05-06 15:54 | 43.58477 | -68.91543 | 28872 ft | 493 kts | 57° |
| 2026-05-06 15:54 | 43.60287 | -68.87506 | 29120 ft | 496 kts | 57° |
| 2026-05-06 15:54 | 43.62100 | -68.83457 | 29417 ft | 497 kts | 57° |
| 2026-05-06 15:54 | 43.63916 | -68.79395 | 29718 ft | 498 kts | 57° |
| 2026-05-06 15:55 | 43.65611 | -68.75603 | 29932 ft | 501 kts | 57° |
| 2026-05-06 15:55 | 43.65710 | -68.75383 | 29945 ft | 501 kts | 57° |
| 2026-05-06 15:55 | 43.66661 | -68.73253 | 30090 ft | 502 kts | 57° |
| 2026-05-06 15:55 | 43.68495 | -68.69141 | 30349 ft | 504 kts | 57° |
| 2026-05-06 15:56 | 43.70339 | -68.65001 | 30604 ft | 506 kts | 57° |
| 2026-05-06 15:56 | 43.72186 | -68.60846 | 30918 ft | 508 kts | 57° |
| 2026-05-06 15:56 | 43.74035 | -68.56682 | 31190 ft | 510 kts | 57° |
| 2026-05-06 15:56 | 43.75895 | -68.52490 | 31401 ft | 513 kts | 57° |
| 2026-05-06 15:57 | 43.77755 | -68.48284 | 31733 ft | 513 kts | 57° |
| 2026-05-06 15:57 | 43.79620 | -68.44062 | 31919 ft | 516 kts | 57° |
| 2026-05-06 15:57 | 43.81492 | -68.39818 | 32198 ft | 516 kts | 57° |
| 2026-05-06 15:57 | 43.83366 | -68.35568 | 32443 ft | 518 kts | 57° |
| 2026-05-06 15:58 | 43.84956 | -68.31953 | 32621 ft | 519 kts | 57° |
| 2026-05-06 15:58 | 43.87608 | -68.25916 | 32911 ft | 520 kts | 57° |
| 2026-05-06 15:59 | 43.89490 | -68.21626 | 33095 ft | 521 kts | 57° |
| 2026-05-06 15:59 | 43.91369 | -68.17336 | 33279 ft | 521 kts | 57° |
| 2026-05-06 15:59 | 43.93249 | -68.13034 | 33395 ft | 522 kts | 58° |
| 2026-05-06 15:59 | 43.95131 | -68.08716 | 33542 ft | 522 kts | 58° |
| 2026-05-06 16:00 | 43.97007 | -68.04399 | 33698 ft | 522 kts | 58° |
| 2026-05-06 16:00 | 43.98860 | -68.00145 | 33897 ft | 521 kts | 58° |
| 2026-05-06 16:00 | 44.00730 | -67.95846 | 34079 ft | 520 kts | 58° |
| 2026-05-06 16:00 | 44.02598 | -67.91547 | 34249 ft | 520 kts | 58° |
| 2026-05-06 16:01 | 44.04462 | -67.87247 | 34411 ft | 519 kts | 58° |
| 2026-05-06 16:01 | 44.06324 | -67.82945 | 34554 ft | 519 kts | 58° |
| 2026-05-06 16:01 | 44.08183 | -67.78643 | 34690 ft | 519 kts | 58° |
| 2026-05-06 16:01 | 44.10042 | -67.74334 | 34805 ft | 519 kts | 58° |
| 2026-05-06 16:02 | 44.11895 | -67.70029 | 34967 ft | 519 kts | 58° |
| 2026-05-06 16:02 | 44.13723 | -67.65774 | 35080 ft | 519 kts | 58° |
| 2026-05-06 16:02 | 44.15576 | -67.61460 | 35187 ft | 519 kts | 57° |
| 2026-05-06 16:02 | 44.17427 | -67.57144 | 35330 ft | 519 kts | 58° |
| 2026-05-06 16:03 | 44.19275 | -67.52826 | 35477 ft | 519 kts | 58° |
| 2026-05-06 16:03 | 44.21120 | -67.48511 | 35639 ft | 518 kts | 57° |
| 2026-05-06 16:03 | 44.22963 | -67.44196 | 35757 ft | 518 kts | 57° |
| 2026-05-06 16:03 | 44.24803 | -67.39882 | 35902 ft | 517 kts | 57° |
| 2026-05-06 16:04 | 44.26636 | -67.35569 | 36029 ft | 516 kts | 57° |
| 2026-05-06 16:04 | 44.28471 | -67.31257 | 36156 ft | 516 kts | 57° |
| 2026-05-06 16:04 | 44.32108 | -67.22690 | 36351 ft | 517 kts | 57° |
| 2026-05-06 16:05 | 44.33935 | -67.18374 | 36475 ft | 516 kts | 57° |
| 2026-05-06 16:05 | 44.35758 | -67.14055 | 36610 ft | 516 kts | 57° |
| 2026-05-06 16:05 | 44.37572 | -67.09751 | 36842 ft | 512 kts | 57° |
| 2026-05-06 16:05 | 44.39373 | -67.05475 | 37081 ft | 509 kts | 57° |
| 2026-05-06 16:06 | 44.41173 | -67.01237 | 37333 ft | 504 kts | 55° |
| 2026-05-06 16:06 | 44.43263 | -66.97333 | 37446 ft | 500 kts | 45° |
| 2026-05-06 16:06 | 44.47805 | -66.90051 | 37626 ft | 500 kts | 46° |
| 2026-05-06 16:07 | 44.50085 | -66.86371 | 37739 ft | 500 kts | 46° |
| 2026-05-06 16:07 | 44.52363 | -66.82692 | 37847 ft | 499 kts | 46° |
| 2026-05-06 16:07 | 44.56919 | -66.75344 | 38035 ft | 499 kts | 46° |
| 2026-05-06 16:08 | 44.61467 | -66.67989 | 38195 ft | 499 kts | 46° |
| 2026-05-06 16:08 | 44.63740 | -66.64308 | 38321 ft | 498 kts | 46° |
| 2026-05-06 16:08 | 44.66005 | -66.60630 | 38408 ft | 498 kts | 46° |
| 2026-05-06 16:09 | 44.70505 | -66.53307 | 38557 ft | 498 kts | 46° |
| 2026-05-06 16:09 | 44.75026 | -66.45934 | 38710 ft | 498 kts | 46° |
| 2026-05-06 16:10 | 44.79544 | -66.38541 | 38856 ft | 498 kts | 46° |
| 2026-05-06 16:10 | 44.84056 | -66.31137 | 38978 ft | 498 kts | 46° |
| 2026-05-06 16:11 | 44.88565 | -66.23715 | 38996 ft | 498 kts | 46° |
| 2026-05-06 16:11 | 44.93035 | -66.16331 | 38997 ft | 498 kts | 47° |
| 2026-05-06 16:12 | 44.97529 | -66.08892 | 38994 ft | 498 kts | 47° |
| 2026-05-06 16:12 | 45.02028 | -66.01427 | 39003 ft | 499 kts | 47° |
| 2026-05-06 16:13 | 45.06525 | -65.93942 | 38998 ft | 497 kts | 47° |
| 2026-05-06 16:13 | 45.10963 | -65.86541 | 38997 ft | 498 kts | 47° |
| 2026-05-06 16:14 | 45.15432 | -65.79058 | 38998 ft | 497 kts | 47° |
| 2026-05-06 16:14 | 45.19896 | -65.71565 | 39003 ft | 498 kts | 47° |
| 2026-05-06 16:15 | 45.24363 | -65.64051 | 38997 ft | 498 kts | 47° |
| 2026-05-06 16:15 | 45.28829 | -65.56517 | 38998 ft | 499 kts | 47° |
| 2026-05-06 16:16 | 45.33268 | -65.49008 | 39018 ft | 500 kts | 47° |
| 2026-05-06 16:16 | 45.37740 | -65.41427 | 39008 ft | 501 kts | 47° |
| 2026-05-06 16:17 | 45.42197 | -65.33847 | 39001 ft | 498 kts | 47° |
| 2026-05-06 16:17 | 45.46642 | -65.26270 | 38987 ft | 499 kts | 47° |
| 2026-05-06 16:18 | 45.51051 | -65.18731 | 38991 ft | 498 kts | 47° |
| 2026-05-06 16:18 | 45.55486 | -65.11123 | 38988 ft | 498 kts | 47° |
| 2026-05-06 16:19 | 45.59918 | -65.03509 | 38980 ft | 499 kts | 48° |
| 2026-05-06 16:19 | 45.64341 | -64.95888 | 38981 ft | 498 kts | 48° |
| 2026-05-06 16:20 | 45.68756 | -64.88256 | 38971 ft | 498 kts | 48° |
| 2026-05-06 16:20 | 45.73136 | -64.80664 | 38976 ft | 498 kts | 48° |
| 2026-05-06 16:21 | 45.77540 | -64.73016 | 38968 ft | 498 kts | 48° |
| 2026-05-06 16:21 | 45.81937 | -64.65352 | 38964 ft | 498 kts | 48° |
| 2026-05-06 16:22 | 45.86331 | -64.57670 | 38962 ft | 498 kts | 48° |
| 2026-05-06 16:22 | 45.90690 | -64.50032 | 38957 ft | 498 kts | 48° |
| 2026-05-06 16:23 | 45.95077 | -64.42323 | 38959 ft | 498 kts | 48° |
| 2026-05-06 16:23 | 45.99463 | -64.34596 | 38959 ft | 499 kts | 48° |
| 2026-05-06 16:24 | 46.03845 | -64.26854 | 38960 ft | 499 kts | 48° |
| 2026-05-06 16:24 | 46.08195 | -64.19149 | 38964 ft | 499 kts | 49° |
| 2026-05-06 16:25 | 46.12568 | -64.11386 | 38969 ft | 499 kts | 49° |
| 2026-05-06 16:25 | 46.16948 | -64.03579 | 38972 ft | 502 kts | 49° |
| 2026-05-06 16:26 | 46.21345 | -63.95727 | 38972 ft | 504 kts | 49° |
| 2026-05-06 16:26 | 46.25747 | -63.87836 | 38970 ft | 505 kts | 49° |
| 2026-05-06 16:27 | 46.30127 | -63.79972 | 38971 ft | 506 kts | 49° |
| 2026-05-06 16:27 | 46.34534 | -63.72028 | 38972 ft | 507 kts | 49° |
| 2026-05-06 16:28 | 46.38948 | -63.64053 | 38956 ft | 508 kts | 49° |
| 2026-05-06 16:28 | 46.43366 | -63.56046 | 38944 ft | 509 kts | 49° |
| 2026-05-06 16:29 | 46.47751 | -63.48077 | 38955 ft | 509 kts | 49° |
| 2026-05-06 16:29 | 46.52163 | -63.40038 | 38954 ft | 509 kts | 50° |
| 2026-05-06 16:30 | 46.55824 | -63.33343 | 38956 ft | 509 kts | 49° |
| 2026-05-06 16:30 | 46.60976 | -63.23906 | 38956 ft | 510 kts | 50° |
| 2026-05-06 16:31 | 46.65378 | -63.15811 | 38953 ft | 510 kts | 50° |
| 2026-05-06 16:31 | 46.69750 | -63.07749 | 38957 ft | 511 kts | 50° |
| 2026-05-06 16:32 | 46.74149 | -62.99613 | 38965 ft | 511 kts | 50° |
| 2026-05-06 16:32 | 46.78543 | -62.91464 | 38966 ft | 511 kts | 50° |
| 2026-05-06 16:33 | 46.82934 | -62.83296 | 38965 ft | 511 kts | 50° |
| 2026-05-06 16:34 | 46.89482 | -62.71083 | 38973 ft | 511 kts | 50° |
| 2026-05-06 16:34 | 46.93856 | -62.62884 | 38974 ft | 511 kts | 50° |
| 2026-05-06 16:35 | 46.98223 | -62.54665 | 38972 ft | 512 kts | 50° |
| 2026-05-06 16:35 | 47.02589 | -62.46427 | 38975 ft | 512 kts | 50° |
| 2026-05-06 16:36 | 47.06924 | -62.38233 | 38974 ft | 512 kts | 50° |
| 2026-05-06 16:36 | 47.11285 | -62.29965 | 38976 ft | 512 kts | 51° |
| 2026-05-06 16:37 | 47.15639 | -62.21684 | 38969 ft | 512 kts | 51° |
| 2026-05-06 16:37 | 47.19991 | -62.13391 | 38970 ft | 513 kts | 51° |
| 2026-05-06 16:38 | 47.24303 | -62.05125 | 38973 ft | 513 kts | 51° |
| 2026-05-06 16:38 | 47.28648 | -61.96778 | 38969 ft | 513 kts | 51° |
| 2026-05-06 16:39 | 47.32990 | -61.88421 | 38978 ft | 514 kts | 51° |
| 2026-05-06 16:39 | 47.37332 | -61.80045 | 38981 ft | 514 kts | 51° |
| 2026-05-06 16:40 | 47.41635 | -61.71703 | 38979 ft | 514 kts | 51° |
| 2026-05-06 16:40 | 47.45964 | -61.63284 | 38979 ft | 515 kts | 51° |
| 2026-05-06 16:41 | 47.50294 | -61.54850 | 38983 ft | 515 kts | 51° |
| 2026-05-06 16:41 | 47.54615 | -61.46400 | 38982 ft | 515 kts | 51° |
| 2026-05-06 16:42 | 47.58929 | -61.37936 | 38980 ft | 515 kts | 52° |
| 2026-05-06 16:42 | 47.63212 | -61.29514 | 38984 ft | 515 kts | 51° |
| 2026-05-06 16:43 | 47.67513 | -61.21025 | 38989 ft | 515 kts | 51° |
| 2026-05-06 16:43 | 47.71805 | -61.12531 | 38991 ft | 514 kts | 52° |
| 2026-05-06 16:44 | 47.76088 | -61.04024 | 38992 ft | 514 kts | 52° |
| 2026-05-06 16:44 | 47.80335 | -60.95563 | 38990 ft | 514 kts | 52° |
| 2026-05-06 16:45 | 47.84600 | -60.87042 | 38990 ft | 513 kts | 52° |
| 2026-05-06 16:45 | 47.88857 | -60.78513 | 38986 ft | 510 kts | 52° |
| 2026-05-06 16:46 | 47.93074 | -60.69931 | 38996 ft | 513 kts | 51° |
| 2026-05-06 16:46 | 47.97295 | -60.61433 | 38985 ft | 514 kts | 52° |
| 2026-05-06 16:47 | 48.01571 | -60.52887 | 38985 ft | 512 kts | 52° |
| 2026-05-06 16:47 | 48.05790 | -60.44312 | 38959 ft | 513 kts | 51° |
| 2026-05-06 16:48 | 48.10007 | -60.35715 | 38971 ft | 514 kts | 52° |
| 2026-05-06 16:48 | 48.14239 | -60.27107 | 38984 ft | 513 kts | 52° |
| 2026-05-06 16:49 | 48.18405 | -60.18518 | 38988 ft | 513 kts | 52° |
| 2026-05-06 16:49 | 48.22620 | -60.09869 | 38992 ft | 514 kts | 52° |
| 2026-05-06 16:50 | 48.26826 | -60.01199 | 38988 ft | 514 kts | 52° |
| 2026-05-06 16:50 | 48.31026 | -59.92512 | 39004 ft | 514 kts | 52° |
| 2026-05-06 16:51 | 48.35193 | -59.83872 | 38994 ft | 514 kts | 52° |
| 2026-05-06 16:51 | 48.39380 | -59.75151 | 38999 ft | 514 kts | 52° |
| 2026-05-06 16:52 | 48.43562 | -59.66412 | 39029 ft | 514 kts | 52° |
| 2026-05-06 16:52 | 48.47737 | -59.57658 | 39008 ft | 515 kts | 53° |
| 2026-05-06 16:53 | 48.51888 | -59.48942 | 39010 ft | 516 kts | 53° |
| 2026-05-06 16:53 | 48.56059 | -59.40142 | 39014 ft | 516 kts | 53° |
| 2026-05-06 16:54 | 48.60228 | -59.31322 | 39021 ft | 516 kts | 53° |
| 2026-05-06 16:54 | 48.64394 | -59.22481 | 39026 ft | 516 kts | 53° |
| 2026-05-06 16:55 | 48.68554 | -59.13619 | 39034 ft | 517 kts | 54° |
| 2026-05-06 16:55 | 48.72685 | -59.04795 | 39039 ft | 517 kts | 54° |
| 2026-05-06 16:56 | 48.76835 | -58.95899 | 39036 ft | 517 kts | 54° |
| 2026-05-06 16:56 | 48.80979 | -58.86987 | 39029 ft | 517 kts | 54° |
| 2026-05-06 16:57 | 48.85121 | -58.78051 | 39013 ft | 518 kts | 54° |
| 2026-05-06 16:57 | 48.89256 | -58.69098 | 39009 ft | 518 kts | 54° |
| 2026-05-06 16:58 | 48.93357 | -58.60187 | 39008 ft | 518 kts | 54° |
| 2026-05-06 16:58 | 48.97483 | -58.51197 | 39027 ft | 518 kts | 54° |
| 2026-05-06 16:59 | 49.01599 | -58.42189 | 39034 ft | 518 kts | 55° |
| 2026-05-06 16:59 | 49.05707 | -58.33169 | 39029 ft | 518 kts | 55° |
| 2026-05-06 17:00 | 49.09784 | -58.24191 | 39035 ft | 518 kts | 55° |
| 2026-05-06 17:00 | 49.13882 | -58.15142 | 39029 ft | 518 kts | 55° |
| 2026-05-06 17:01 | 49.17978 | -58.06075 | 39011 ft | 518 kts | 55° |
| 2026-05-06 17:01 | 49.22064 | -57.96987 | 39014 ft | 519 kts | 55° |
| 2026-05-06 17:02 | 49.26122 | -57.87939 | 39010 ft | 520 kts | 55° |
| 2026-05-06 17:02 | 49.30196 | -57.78806 | 39005 ft | 520 kts | 55° |
| 2026-05-06 17:03 | 49.34267 | -57.69656 | 39010 ft | 519 kts | 56° |
| 2026-05-06 17:03 | 49.38329 | -57.60494 | 39016 ft | 519 kts | 56° |
| 2026-05-06 17:04 | 49.42374 | -57.51311 | 39028 ft | 519 kts | 57° |
| 2026-05-06 17:04 | 49.46390 | -57.42187 | 39031 ft | 520 kts | 56° |
| 2026-05-06 17:05 | 49.50440 | -57.32937 | 39038 ft | 521 kts | 56° |
| 2026-05-06 17:05 | 49.54503 | -57.23721 | 39031 ft | 518 kts | 56° |
| 2026-05-06 17:06 | 49.58520 | -57.14502 | 39009 ft | 518 kts | 56° |
| 2026-05-06 17:06 | 49.62513 | -57.05327 | 39019 ft | 519 kts | 55° |
| 2026-05-06 17:07 | 49.66504 | -56.96070 | 39001 ft | 519 kts | 56° |
| 2026-05-06 17:07 | 49.70533 | -56.86759 | 39021 ft | 523 kts | 56° |
| 2026-05-06 17:08 | 49.74560 | -56.77438 | 38994 ft | 519 kts | 56° |
| 2026-05-06 17:08 | 49.78526 | -56.68185 | 38993 ft | 521 kts | 56° |
| 2026-05-06 17:09 | 49.82484 | -56.58802 | 39003 ft | 522 kts | 56° |
| 2026-05-06 17:09 | 49.86480 | -56.49398 | 39032 ft | 525 kts | 56° |
| 2026-05-06 17:10 | 49.90514 | -56.39971 | 39027 ft | 524 kts | 56° |
| 2026-05-06 17:10 | 49.94483 | -56.30554 | 39006 ft | 526 kts | 56° |
| 2026-05-06 17:11 | 49.98480 | -56.21069 | 39013 ft | 525 kts | 56° |
| 2026-05-06 17:11 | 50.02487 | -56.11604 | 38984 ft | 522 kts | 56° |
| 2026-05-06 17:12 | 50.06431 | -56.02086 | 39006 ft | 525 kts | 56° |
| 2026-05-06 17:12 | 50.10379 | -55.92598 | 39004 ft | 526 kts | 56° |
| 2026-05-06 17:13 | 50.14326 | -55.83042 | 38998 ft | 525 kts | 57° |
| 2026-05-06 17:13 | 50.18298 | -55.73480 | 39027 ft | 527 kts | 57° |
| 2026-05-06 17:14 | 50.22201 | -55.63870 | 38991 ft | 520 kts | 57° |
| 2026-05-06 17:14 | 50.26104 | -55.54315 | 38982 ft | 522 kts | 57° |
| 2026-05-06 17:15 | 50.30000 | -55.44814 | 39005 ft | 523 kts | 56° |
| 2026-05-06 17:15 | 50.33936 | -55.35241 | 38995 ft | 522 kts | 56° |
| 2026-05-06 17:16 | 50.37824 | -55.25612 | 39001 ft | 524 kts | 57° |
| 2026-05-06 17:16 | 50.41738 | -55.15981 | 38996 ft | 524 kts | 57° |
| 2026-05-06 17:17 | 50.45610 | -55.06395 | 38999 ft | 523 kts | 57° |
| 2026-05-06 17:17 | 50.49485 | -54.96735 | 39005 ft | 522 kts | 57° |
| 2026-05-06 17:18 | 50.53347 | -54.87072 | 38999 ft | 522 kts | 57° |
| 2026-05-06 17:18 | 50.57198 | -54.77403 | 39002 ft | 521 kts | 57° |
| 2026-05-06 17:19 | 50.61033 | -54.67738 | 38999 ft | 521 kts | 57° |
| 2026-05-06 17:19 | 50.64837 | -54.58127 | 39004 ft | 520 kts | 57° |
| 2026-05-06 17:20 | 50.68649 | -54.48445 | 39033 ft | 519 kts | 57° |
| 2026-05-06 17:20 | 50.72452 | -54.38759 | 39032 ft | 519 kts | 57° |
| 2026-05-06 17:21 | 50.76241 | -54.29059 | 39027 ft | 519 kts | 57° |
| 2026-05-06 17:21 | 50.80001 | -54.19412 | 39006 ft | 519 kts | 57° |
| 2026-05-06 17:22 | 50.83776 | -54.09691 | 39008 ft | 519 kts | 57° |
| 2026-05-06 17:22 | 50.87537 | -53.99956 | 39013 ft | 518 kts | 57° |
| 2026-05-06 17:23 | 50.91290 | -53.90220 | 39042 ft | 517 kts | 57° |
| 2026-05-06 17:23 | 50.95033 | -53.80498 | 39037 ft | 516 kts | 57° |
| 2026-05-06 17:24 | 50.98734 | -53.70842 | 39028 ft | 515 kts | 57° |
| 2026-05-06 17:24 | 51.02454 | -53.61118 | 39031 ft | 515 kts | 57° |
| 2026-05-06 17:25 | 51.06159 | -53.51373 | 39031 ft | 515 kts | 57° |
| 2026-05-06 17:25 | 51.09855 | -53.41625 | 39018 ft | 515 kts | 57° |
| 2026-05-06 17:26 | 51.13514 | -53.31932 | 39019 ft | 514 kts | 57° |
| 2026-05-06 17:26 | 51.16942 | -53.21929 | 39023 ft | 515 kts | 62° |
| 2026-05-06 17:27 | 51.19881 | -53.11516 | 39002 ft | 516 kts | 66° |
| 2026-05-06 17:27 | 51.22766 | -53.01040 | 39003 ft | 515 kts | 65° |
| 2026-05-06 17:28 | 51.25655 | -52.90579 | 39008 ft | 515 kts | 65° |
| 2026-05-06 17:28 | 51.28492 | -52.80173 | 39009 ft | 514 kts | 65° |
| 2026-05-06 17:29 | 51.31332 | -52.69687 | 39007 ft | 514 kts | 65° |
| 2026-05-06 17:29 | 51.34161 | -52.59189 | 38981 ft | 514 kts | 65° |
| 2026-05-06 17:30 | 51.36980 | -52.48683 | 38984 ft | 513 kts | 65° |
| 2026-05-06 17:30 | 51.39765 | -52.38251 | 38974 ft | 513 kts | 65° |
| 2026-05-06 17:31 | 51.42555 | -52.27751 | 38973 ft | 512 kts | 65° |
| 2026-05-06 17:31 | 51.45334 | -52.17244 | 38972 ft | 512 kts | 65° |
| 2026-05-06 17:32 | 51.48107 | -52.06726 | 38973 ft | 512 kts | 65° |
| 2026-05-06 17:32 | 51.50848 | -51.96273 | 38973 ft | 511 kts | 65° |
| 2026-05-06 17:33 | 51.53591 | -51.85746 | 38973 ft | 511 kts | 65° |
| 2026-05-06 17:33 | 51.56329 | -51.75215 | 38971 ft | 511 kts | 65° |
| 2026-05-06 17:34 | 51.59055 | -51.64669 | 38972 ft | 511 kts | 65° |
| 2026-05-06 17:34 | 51.61754 | -51.54189 | 38973 ft | 510 kts | 65° |
| 2026-05-06 17:35 | 51.64460 | -51.43634 | 38970 ft | 510 kts | 65° |
| 2026-05-06 17:35 | 51.67156 | -51.33055 | 38973 ft | 510 kts | 65° |
| 2026-05-06 17:36 | 51.71178 | -51.17181 | 38984 ft | 510 kts | 65° |
| 2026-05-06 17:36 | 51.73823 | -51.06677 | 39005 ft | 509 kts | 65° |
| 2026-05-06 17:37 | 51.76477 | -50.96097 | 39004 ft | 509 kts | 65° |
| 2026-05-06 17:37 | 51.79123 | -50.85507 | 39009 ft | 509 kts | 65° |
| 2026-05-06 17:38 | 51.81757 | -50.74900 | 39006 ft | 509 kts | 65° |
| 2026-05-06 17:38 | 51.84364 | -50.64354 | 39011 ft | 508 kts | 65° |
| 2026-05-06 17:39 | 51.86982 | -50.53729 | 39013 ft | 508 kts | 65° |
| 2026-05-06 17:39 | 51.89588 | -50.43084 | 39013 ft | 509 kts | 65° |
| 2026-05-06 17:40 | 51.92184 | -50.32421 | 39007 ft | 509 kts | 65° |
| 2026-05-06 17:40 | 51.94334 | -50.23550 | 39005 ft | 509 kts | 65° |
| 2026-05-06 17:41 | 51.97332 | -50.11131 | 39014 ft | 509 kts | 65° |
| 2026-05-06 17:41 | 51.99818 | -50.00369 | 39006 ft | 511 kts | 69° |
| 2026-05-06 17:42 | 52.01541 | -49.89147 | 39019 ft | 513 kts | 74° |
| 2026-05-06 17:42 | 52.03149 | -49.77853 | 39023 ft | 513 kts | 74° |
| 2026-05-06 17:43 | 52.04766 | -49.66634 | 39029 ft | 513 kts | 74° |
| 2026-05-06 17:43 | 52.06379 | -49.55338 | 39036 ft | 513 kts | 74° |
| 2026-05-06 17:44 | 52.07712 | -49.45944 | 39032 ft | 513 kts | 74° |
| 2026-05-06 17:44 | 52.09297 | -49.34621 | 39040 ft | 514 kts | 75° |
| 2026-05-06 17:45 | 52.11122 | -49.21455 | 39036 ft | 513 kts | 75° |
| 2026-05-06 17:45 | 52.12678 | -49.10123 | 39038 ft | 513 kts | 75° |
| 2026-05-06 17:46 | 52.13963 | -49.00704 | 39045 ft | 513 kts | 75° |
| 2026-05-06 17:46 | 52.15498 | -48.89374 | 39046 ft | 512 kts | 75° |
| 2026-05-06 17:47 | 52.17021 | -48.78039 | 39045 ft | 512 kts | 75° |
| 2026-05-06 17:47 | 52.18523 | -48.66775 | 39047 ft | 512 kts | 75° |
| 2026-05-06 17:48 | 52.20025 | -48.55431 | 39046 ft | 512 kts | 75° |
| 2026-05-06 17:48 | 52.21512 | -48.44092 | 39046 ft | 512 kts | 75° |
| 2026-05-06 17:49 | 52.22994 | -48.32743 | 39055 ft | 511 kts | 75° |
| 2026-05-06 17:49 | 52.24460 | -48.21397 | 39051 ft | 511 kts | 75° |
| 2026-05-06 17:50 | 52.25904 | -48.10110 | 39050 ft | 512 kts | 75° |
| 2026-05-06 17:50 | 52.27347 | -47.98740 | 39053 ft | 512 kts | 75° |
| 2026-05-06 17:51 | 52.28783 | -47.87362 | 39050 ft | 511 kts | 75° |
| 2026-05-06 17:51 | 52.30206 | -47.75985 | 39054 ft | 511 kts | 75° |
| 2026-05-06 17:52 | 52.31617 | -47.64599 | 39060 ft | 511 kts | 75° |
| 2026-05-06 17:52 | 52.33005 | -47.53294 | 39053 ft | 510 kts | 76° |
| 2026-05-06 17:53 | 52.34395 | -47.41933 | 39061 ft | 511 kts | 76° |
| 2026-05-06 17:53 | 52.35774 | -47.30531 | 39058 ft | 511 kts | 76° |
| 2026-05-06 17:54 | 52.37139 | -47.19117 | 39070 ft | 511 kts | 76° |
| 2026-05-06 17:54 | 52.38494 | -47.07698 | 39064 ft | 511 kts | 76° |
| 2026-05-06 17:55 | 52.39836 | -46.96369 | 39059 ft | 511 kts | 76° |
| 2026-05-06 17:55 | 52.41160 | -46.84952 | 39067 ft | 510 kts | 76° |
| 2026-05-06 17:56 | 52.42481 | -46.73531 | 39064 ft | 510 kts | 76° |
| 2026-05-06 17:56 | 52.43795 | -46.62100 | 39066 ft | 510 kts | 76° |
| 2026-05-06 17:57 | 52.45085 | -46.50753 | 39066 ft | 511 kts | 76° |
| 2026-05-06 17:57 | 52.46377 | -46.39294 | 39067 ft | 511 kts | 76° |
| 2026-05-06 17:58 | 52.47660 | -46.27826 | 39073 ft | 511 kts | 76° |
| 2026-05-06 17:58 | 52.48923 | -46.16348 | 39070 ft | 511 kts | 76° |
| 2026-05-06 17:59 | 52.50166 | -46.04941 | 39070 ft | 511 kts | 76° |
| 2026-05-06 17:59 | 52.51415 | -45.93462 | 39073 ft | 511 kts | 76° |
| 2026-05-06 18:00 | 52.52646 | -45.81965 | 39081 ft | 512 kts | 77° |
| 2026-05-06 18:00 | 52.53863 | -45.70460 | 39084 ft | 510 kts | 76° |
| 2026-05-06 18:01 | 52.55074 | -45.59047 | 39081 ft | 511 kts | 77° |
| 2026-05-06 18:01 | 52.56272 | -45.47531 | 39088 ft | 511 kts | 77° |
| 2026-05-06 18:02 | 52.57475 | -45.36033 | 39092 ft | 509 kts | 77° |
| 2026-05-06 18:02 | 52.58656 | -45.24586 | 39203 ft | 506 kts | 77° |
| 2026-05-06 18:03 | 52.59792 | -45.13262 | 39216 ft | 505 kts | 77° |
| 2026-05-06 18:03 | 52.60931 | -45.01860 | 39219 ft | 505 kts | 77° |
| 2026-05-06 18:04 | 52.62059 | -44.90429 | 39231 ft | 507 kts | 77° |
| 2026-05-06 18:04 | 52.63193 | -44.78970 | 39250 ft | 506 kts | 76° |
| 2026-05-06 18:05 | 52.64303 | -44.67616 | 39255 ft | 506 kts | 76° |
| 2026-05-06 18:05 | 52.65402 | -44.56176 | 39254 ft | 506 kts | 76° |
| 2026-05-06 18:06 | 52.66494 | -44.44728 | 39252 ft | 506 kts | 76° |
| 2026-05-06 18:06 | 52.67567 | -44.33270 | 39251 ft | 506 kts | 76° |
| 2026-05-06 18:07 | 52.68640 | -44.21804 | 39249 ft | 506 kts | 76° |
| 2026-05-06 18:07 | 52.69688 | -44.10414 | 39250 ft | 506 kts | 76° |
| 2026-05-06 18:08 | 52.70734 | -43.98941 | 39248 ft | 506 kts | 76° |
| 2026-05-06 18:08 | 52.71762 | -43.87471 | 39249 ft | 505 kts | 76° |
| 2026-05-06 18:09 | 52.72774 | -43.75998 | 39252 ft | 506 kts | 77° |
| 2026-05-06 18:09 | 52.73795 | -43.64513 | 39256 ft | 506 kts | 77° |
| 2026-05-06 18:10 | 52.74800 | -43.53104 | 39260 ft | 506 kts | 77° |
| 2026-05-06 18:10 | 52.75796 | -43.41596 | 39253 ft | 506 kts | 77° |
| 2026-05-06 18:11 | 52.76776 | -43.30107 | 39254 ft | 506 kts | 77° |
| 2026-05-06 18:11 | 52.77748 | -43.18602 | 39258 ft | 506 kts | 78° |
| 2026-05-06 18:12 | 52.78693 | -43.07176 | 39255 ft | 505 kts | 78° |
| 2026-05-06 18:12 | 52.79636 | -42.95680 | 39252 ft | 504 kts | 77° |
| 2026-05-06 18:13 | 52.80576 | -42.84210 | 39251 ft | 503 kts | 78° |
| 2026-05-06 18:13 | 52.81489 | -42.72733 | 39238 ft | 503 kts | 78° |
| 2026-05-06 18:14 | 52.82380 | -42.61353 | 39231 ft | 502 kts | 78° |
| 2026-05-06 18:14 | 52.83269 | -42.49915 | 39223 ft | 502 kts | 78° |
| 2026-05-06 18:15 | 52.84156 | -42.38448 | 39243 ft | 503 kts | 78° |
| 2026-05-06 18:15 | 52.85043 | -42.26964 | 39248 ft | 502 kts | 78° |
| 2026-05-06 18:16 | 52.85893 | -42.15558 | 39243 ft | 503 kts | 78° |
| 2026-05-06 18:16 | 52.86743 | -42.04066 | 39247 ft | 503 kts | 78° |
| 2026-05-06 18:17 | 52.87607 | -41.92579 | 39258 ft | 503 kts | 78° |
| 2026-05-06 18:17 | 52.88449 | -41.81075 | 39261 ft | 504 kts | 79° |
| 2026-05-06 18:18 | 52.89265 | -41.69543 | 39262 ft | 504 kts | 79° |
| 2026-05-06 18:18 | 52.90057 | -41.58074 | 39274 ft | 505 kts | 79° |
| 2026-05-06 18:19 | 52.90850 | -41.46535 | 39267 ft | 504 kts | 79° |
| 2026-05-06 18:19 | 52.91632 | -41.35016 | 39267 ft | 503 kts | 79° |
| 2026-05-06 18:20 | 52.92410 | -41.23509 | 39259 ft | 502 kts | 80° |
| 2026-05-06 18:20 | 52.93171 | -41.12066 | 39268 ft | 502 kts | 79° |
| 2026-05-06 18:21 | 52.93927 | -41.00557 | 39264 ft | 502 kts | 80° |
| 2026-05-06 18:21 | 52.94662 | -40.89055 | 39254 ft | 502 kts | 80° |
| 2026-05-06 18:22 | 52.95397 | -40.77564 | 39257 ft | 501 kts | 80° |
| 2026-05-06 18:22 | 52.96114 | -40.66132 | 39266 ft | 502 kts | 80° |
| 2026-05-06 18:23 | 52.96813 | -40.54619 | 39260 ft | 502 kts | 80° |
| 2026-05-06 18:23 | 52.97510 | -40.43098 | 39265 ft | 502 kts | 81° |
| 2026-05-06 18:24 | 52.98200 | -40.31583 | 39265 ft | 501 kts | 81° |
| 2026-05-06 18:24 | 52.98884 | -40.20073 | 39258 ft | 501 kts | 81° |
| 2026-05-06 18:25 | 52.99552 | -40.08641 | 39262 ft | 501 kts | 81° |
| 2026-05-06 18:25 | 53.00227 | -39.97134 | 39258 ft | 499 kts | 78° |
| 2026-05-06 18:26 | 53.01785 | -39.85996 | 39258 ft | 494 kts | 71° |
| 2026-05-06 18:26 | 53.03532 | -39.74962 | 39258 ft | 494 kts | 72° |
| 2026-05-06 18:27 | 53.05153 | -39.63938 | 39259 ft | 495 kts | 73° |
| 2026-05-06 18:27 | 53.06736 | -39.52812 | 39263 ft | 495 kts | 73° |
| 2026-05-06 18:28 | 53.08302 | -39.41675 | 39254 ft | 494 kts | 73° |
| 2026-05-06 18:28 | 53.09854 | -39.30530 | 39257 ft | 494 kts | 73° |
| 2026-05-06 18:29 | 53.11394 | -39.19375 | 39256 ft | 495 kts | 73° |
| 2026-05-06 18:29 | 53.12914 | -39.08283 | 39261 ft | 495 kts | 73° |
| 2026-05-06 18:30 | 53.14432 | -38.97109 | 39265 ft | 495 kts | 73° |
| 2026-05-06 18:30 | 53.15939 | -38.85930 | 39260 ft | 495 kts | 73° |
| 2026-05-06 18:31 | 53.17437 | -38.74753 | 39261 ft | 494 kts | 74° |
| 2026-05-06 18:31 | 53.18912 | -38.63647 | 39257 ft | 494 kts | 74° |
| 2026-05-06 18:32 | 53.20384 | -38.52458 | 39260 ft | 494 kts | 74° |
| 2026-05-06 18:32 | 53.21853 | -38.41273 | 39262 ft | 494 kts | 74° |
| 2026-05-06 18:33 | 53.23304 | -38.30070 | 39258 ft | 494 kts | 74° |
| 2026-05-06 18:33 | 53.24743 | -38.18865 | 39263 ft | 493 kts | 75° |
| 2026-05-06 18:34 | 53.26165 | -38.07739 | 39262 ft | 493 kts | 75° |
| 2026-05-06 18:34 | 53.27582 | -37.96531 | 39262 ft | 493 kts | 75° |
| 2026-05-06 18:35 | 53.28991 | -37.85319 | 39261 ft | 493 kts | 75° |
| 2026-05-06 18:35 | 53.30388 | -37.74105 | 39256 ft | 493 kts | 75° |
| 2026-05-06 18:36 | 53.31764 | -37.62968 | 39257 ft | 493 kts | 75° |
| 2026-05-06 18:36 | 53.33140 | -37.51743 | 39263 ft | 493 kts | 75° |
| 2026-05-06 18:37 | 53.34508 | -37.40507 | 39266 ft | 493 kts | 75° |
| 2026-05-06 18:37 | 53.35863 | -37.29264 | 39269 ft | 493 kts | 76° |
| 2026-05-06 18:38 | 53.37201 | -37.18074 | 39268 ft | 493 kts | 76° |
| 2026-05-06 18:38 | 53.38539 | -37.06801 | 39259 ft | 494 kts | 76° |
| 2026-05-06 18:39 | 53.39867 | -36.95497 | 39215 ft | 495 kts | 76° |
| 2026-05-06 18:40 | 53.41843 | -36.78521 | 39214 ft | 495 kts | 76° |
| 2026-05-06 18:40 | 53.43136 | -36.67260 | 39212 ft | 495 kts | 76° |
| 2026-05-06 18:41 | 53.44424 | -36.55929 | 39211 ft | 495 kts | 76° |
| 2026-05-06 18:41 | 53.45708 | -36.44594 | 39208 ft | 495 kts | 77° |
| 2026-05-06 18:42 | 53.46977 | -36.33245 | 39211 ft | 495 kts | 77° |
| 2026-05-06 18:42 | 53.48225 | -36.21964 | 39213 ft | 495 kts | 77° |
| 2026-05-06 18:43 | 53.49476 | -36.10597 | 39219 ft | 495 kts | 77° |
| 2026-05-06 18:43 | 53.50715 | -35.99228 | 39212 ft | 495 kts | 77° |
| 2026-05-06 18:44 | 53.51943 | -35.87868 | 39258 ft | 493 kts | 77° |
| 2026-05-06 18:44 | 53.53150 | -35.76586 | 39262 ft | 494 kts | 77° |
| 2026-05-06 18:45 | 53.54353 | -35.65212 | 39268 ft | 495 kts | 77° |
| 2026-05-06 18:45 | 53.55548 | -35.53823 | 39270 ft | 495 kts | 77° |
| 2026-05-06 18:46 | 53.56732 | -35.42410 | 39274 ft | 496 kts | 78° |
| 2026-05-06 18:46 | 53.57906 | -35.30981 | 39271 ft | 496 kts | 78° |
| 2026-05-06 18:47 | 53.59066 | -35.19609 | 39272 ft | 497 kts | 78° |
| 2026-05-06 18:47 | 53.60223 | -35.08158 | 39277 ft | 497 kts | 78° |
| 2026-05-06 18:48 | 53.61370 | -34.96672 | 39279 ft | 497 kts | 78° |
| 2026-05-06 18:48 | 53.62504 | -34.85184 | 39276 ft | 498 kts | 78° |
| 2026-05-06 18:49 | 53.63622 | -34.73756 | 39278 ft | 497 kts | 78° |
| 2026-05-06 18:49 | 53.64733 | -34.62251 | 39278 ft | 498 kts | 79° |
| 2026-05-06 18:50 | 53.65836 | -34.50735 | 39279 ft | 498 kts | 79° |
| 2026-05-06 18:50 | 53.66926 | -34.39220 | 39276 ft | 497 kts | 79° |
| 2026-05-06 18:51 | 53.67999 | -34.27777 | 39279 ft | 497 kts | 79° |
| 2026-05-06 18:51 | 53.69069 | -34.16245 | 39282 ft | 498 kts | 79° |
| 2026-05-06 18:52 | 53.70130 | -34.04710 | 39284 ft | 497 kts | 79° |
| 2026-05-06 18:52 | 53.71181 | -33.93171 | 39281 ft | 497 kts | 79° |
| 2026-05-06 18:53 | 53.72217 | -33.81625 | 39282 ft | 497 kts | 79° |
| 2026-05-06 18:53 | 53.73234 | -33.70152 | 39273 ft | 497 kts | 80° |
| 2026-05-06 18:54 | 53.74249 | -33.58591 | 39279 ft | 497 kts | 80° |
| 2026-05-06 18:54 | 53.75250 | -33.47023 | 39271 ft | 498 kts | 80° |
| 2026-05-06 18:55 | 53.76244 | -33.35448 | 39267 ft | 498 kts | 80° |
| 2026-05-06 18:55 | 53.77220 | -33.23935 | 39269 ft | 498 kts | 80° |
| 2026-05-06 18:56 | 53.78190 | -33.12337 | 39275 ft | 498 kts | 80° |
| 2026-05-06 18:56 | 53.79152 | -33.00724 | 39274 ft | 499 kts | 81° |
| 2026-05-06 18:57 | 53.80103 | -32.89097 | 39270 ft | 499 kts | 81° |
| 2026-05-06 18:57 | 53.81039 | -32.77466 | 39269 ft | 499 kts | 81° |
| 2026-05-06 18:58 | 53.81965 | -32.65902 | 39275 ft | 499 kts | 81° |
| 2026-05-06 18:58 | 53.82881 | -32.54253 | 39270 ft | 500 kts | 81° |
| 2026-05-06 18:59 | 53.83787 | -32.42587 | 39281 ft | 500 kts | 81° |
| 2026-05-06 18:59 | 53.84676 | -32.30995 | 39277 ft | 500 kts | 81° |
| 2026-05-06 19:00 | 53.85561 | -32.19319 | 39282 ft | 500 kts | 82° |
| 2026-05-06 19:00 | 53.86436 | -32.07636 | 39277 ft | 500 kts | 82° |
| 2026-05-06 19:01 | 53.87294 | -31.95951 | 39282 ft | 500 kts | 82° |
| 2026-05-06 19:01 | 53.88139 | -31.84333 | 39287 ft | 500 kts | 82° |
| 2026-05-06 19:02 | 53.88979 | -31.72642 | 39286 ft | 500 kts | 82° |
| 2026-05-06 19:02 | 53.89807 | -31.60940 | 39274 ft | 500 kts | 82° |
| 2026-05-06 19:03 | 53.90623 | -31.49230 | 39277 ft | 500 kts | 82° |
| 2026-05-06 19:03 | 53.91428 | -31.37515 | 39278 ft | 500 kts | 82° |
| 2026-05-06 19:04 | 53.92216 | -31.25863 | 39276 ft | 501 kts | 82° |
| 2026-05-06 19:04 | 53.93001 | -31.14122 | 39273 ft | 501 kts | 83° |
| 2026-05-06 19:05 | 53.93774 | -31.02372 | 39271 ft | 501 kts | 83° |
| 2026-05-06 19:05 | 53.94535 | -30.90611 | 39270 ft | 501 kts | 83° |
| 2026-05-06 19:06 | 53.95282 | -30.78835 | 39268 ft | 502 kts | 83° |
| 2026-05-06 19:06 | 53.96019 | -30.67138 | 39267 ft | 502 kts | 83° |
| 2026-05-06 19:07 | 53.96748 | -30.55342 | 39271 ft | 502 kts | 83° |
| 2026-05-06 19:07 | 53.97462 | -30.43540 | 39260 ft | 502 kts | 83° |
| 2026-05-06 19:08 | 53.98178 | -30.31735 | 39270 ft | 502 kts | 83° |
| 2026-05-06 19:08 | 53.98879 | -30.20000 | 39267 ft | 503 kts | 83° |
| 2026-05-06 19:09 | 53.99572 | -30.08187 | 39272 ft | 503 kts | 83° |
| 2026-05-06 19:09 | 54.00181 | -29.96350 | 39271 ft | 503 kts | 85° |
| 2026-05-06 19:10 | 54.00573 | -29.84485 | 39269 ft | 503 kts | 85° |
| 2026-05-06 19:10 | 54.01064 | -29.72700 | 39268 ft | 503 kts | 85° |
| 2026-05-06 19:11 | 54.01544 | -29.60835 | 39278 ft | 503 kts | 85° |
| 2026-05-06 19:11 | 54.01980 | -29.48953 | 39271 ft | 503 kts | 85° |
| 2026-05-06 19:12 | 54.02444 | -29.37080 | 39278 ft | 503 kts | 86° |
| 2026-05-06 19:12 | 54.02880 | -29.25216 | 39273 ft | 503 kts | 86° |
| 2026-05-06 19:13 | 54.03298 | -29.13343 | 39270 ft | 502 kts | 86° |
| 2026-05-06 19:13 | 54.03697 | -29.01560 | 39275 ft | 502 kts | 86° |
| 2026-05-06 19:14 | 54.04085 | -28.89694 | 39269 ft | 502 kts | 86° |
| 2026-05-06 19:14 | 54.04465 | -28.77842 | 39270 ft | 502 kts | 86° |
| 2026-05-06 19:15 | 54.04832 | -28.65993 | 39272 ft | 501 kts | 86° |
| 2026-05-06 19:15 | 54.05184 | -28.54230 | 39273 ft | 501 kts | 87° |
| 2026-05-06 19:16 | 54.05528 | -28.42383 | 39274 ft | 501 kts | 87° |
| 2026-05-06 19:16 | 54.05857 | -28.30545 | 39270 ft | 501 kts | 86° |
| 2026-05-06 19:17 | 54.06176 | -28.18696 | 39275 ft | 501 kts | 87° |
| 2026-05-06 19:17 | 54.06477 | -28.06929 | 39272 ft | 501 kts | 87° |
| 2026-05-06 19:18 | 54.06775 | -27.95086 | 39268 ft | 501 kts | 87° |
| 2026-05-06 19:18 | 54.07061 | -27.83235 | 39272 ft | 501 kts | 87° |
| 2026-05-06 19:19 | 54.07333 | -27.71390 | 39264 ft | 501 kts | 88° |
| 2026-05-06 19:19 | 54.07596 | -27.59533 | 39264 ft | 501 kts | 88° |
| 2026-05-06 19:20 | 54.07844 | -27.47756 | 39260 ft | 501 kts | 88° |
| 2026-05-06 19:20 | 54.08081 | -27.35907 | 39255 ft | 501 kts | 88° |
| 2026-05-06 19:21 | 54.08310 | -27.24050 | 39259 ft | 501 kts | 88° |
| 2026-05-06 19:21 | 54.08523 | -27.12179 | 39259 ft | 501 kts | 88° |
| 2026-05-06 19:22 | 54.08725 | -27.00397 | 39267 ft | 501 kts | 88° |
| 2026-05-06 19:22 | 54.08918 | -26.88526 | 39268 ft | 501 kts | 88° |
| 2026-05-06 19:23 | 54.09093 | -26.76653 | 39257 ft | 502 kts | 88° |
| 2026-05-06 19:23 | 54.09262 | -26.64766 | 39268 ft | 502 kts | 88° |
| 2026-05-06 19:24 | 54.09420 | -26.52952 | 39270 ft | 502 kts | 89° |
| 2026-05-06 19:24 | 54.09564 | -26.41057 | 39272 ft | 502 kts | 89° |
| 2026-05-06 19:25 | 54.09697 | -26.29149 | 39274 ft | 503 kts | 89° |
| 2026-05-06 19:25 | 54.09818 | -26.17242 | 39266 ft | 503 kts | 89° |
| 2026-05-06 19:26 | 54.09929 | -26.05407 | 39276 ft | 503 kts | 89° |
| 2026-05-06 19:26 | 54.10026 | -25.93498 | 39274 ft | 503 kts | 89° |
| 2026-05-06 19:27 | 54.10112 | -25.81579 | 39273 ft | 503 kts | 89° |
| 2026-05-06 19:27 | 54.10186 | -25.69652 | 39242 ft | 504 kts | 89° |
| 2026-05-06 19:28 | 54.10250 | -25.57707 | 39197 ft | 504 kts | 90° |
| 2026-05-06 19:28 | 54.10301 | -25.45854 | 39195 ft | 503 kts | 90° |
| 2026-05-06 19:29 | 54.10342 | -25.33948 | 39187 ft | 502 kts | 90° |
| 2026-05-06 19:29 | 54.10366 | -25.22045 | 39194 ft | 503 kts | 90° |
| 2026-05-06 19:30 | 54.10387 | -25.10125 | 39198 ft | 503 kts | 90° |
| 2026-05-06 19:30 | 54.10388 | -24.98285 | 39189 ft | 503 kts | 90° |
| 2026-05-06 19:31 | 54.10379 | -24.86379 | 39182 ft | 502 kts | 90° |
| 2026-05-06 19:31 | 54.10350 | -24.68553 | 39182 ft | 501 kts | 91° |
| 2026-05-06 19:32 | 54.10312 | -24.56666 | 39179 ft | 502 kts | 91° |
| 2026-05-06 19:32 | 54.10263 | -24.44859 | 39179 ft | 502 kts | 91° |
| 2026-05-06 19:33 | 54.10200 | -24.32988 | 39176 ft | 501 kts | 91° |
| 2026-05-06 19:33 | 54.10121 | -24.21124 | 39179 ft | 501 kts | 91° |
| 2026-05-06 19:34 | 54.10035 | -24.09266 | 39167 ft | 501 kts | 91° |
| 2026-05-06 19:34 | 54.09947 | -23.97491 | 39167 ft | 501 kts | 91° |
| 2026-05-06 19:35 | 54.09846 | -23.85631 | 39171 ft | 501 kts | 91° |
| 2026-05-06 19:35 | 54.09726 | -23.73765 | 39146 ft | 501 kts | 91° |
| 2026-05-06 19:36 | 54.09602 | -23.61895 | 39141 ft | 502 kts | 91° |
| 2026-05-06 19:36 | 54.09457 | -23.50096 | 39142 ft | 501 kts | 92° |
| 2026-05-06 19:37 | 54.09304 | -23.38227 | 39128 ft | 501 kts | 92° |
| 2026-05-06 19:37 | 54.09166 | -23.28366 | 39131 ft | 501 kts | 92° |
| 2026-05-06 19:38 | 54.08957 | -23.14488 | 39128 ft | 501 kts | 92° |
| 2026-05-06 19:38 | 54.08767 | -23.02630 | 39124 ft | 501 kts | 92° |
| 2026-05-06 19:39 | 54.08568 | -22.90849 | 39130 ft | 501 kts | 93° |
| 2026-05-06 19:39 | 54.08360 | -22.78984 | 39129 ft | 501 kts | 93° |
| 2026-05-06 19:40 | 54.08139 | -22.67126 | 39130 ft | 501 kts | 93° |
| 2026-05-06 19:40 | 54.07903 | -22.55278 | 39123 ft | 501 kts | 93° |
| 2026-05-06 19:41 | 54.07656 | -22.43511 | 39118 ft | 500 kts | 94° |
| 2026-05-06 19:41 | 54.07398 | -22.31681 | 39114 ft | 500 kts | 94° |
| 2026-05-06 19:42 | 54.07132 | -22.19858 | 39112 ft | 500 kts | 94° |
| 2026-05-06 19:42 | 54.06851 | -22.08043 | 39113 ft | 499 kts | 94° |
| 2026-05-06 19:43 | 54.06562 | -21.96318 | 39103 ft | 499 kts | 94° |
| 2026-05-06 19:43 | 54.06261 | -21.84512 | 39101 ft | 499 kts | 94° |
| 2026-05-06 19:44 | 54.05944 | -21.72717 | 39099 ft | 499 kts | 94° |
| 2026-05-06 19:44 | 54.05615 | -21.60931 | 39094 ft | 499 kts | 94° |
| 2026-05-06 19:45 | 54.05280 | -21.49215 | 39098 ft | 499 kts | 94° |
| 2026-05-06 19:45 | 54.04931 | -21.37414 | 39102 ft | 499 kts | 95° |
| 2026-05-06 19:46 | 54.04571 | -21.25615 | 39100 ft | 499 kts | 94° |
| 2026-05-06 19:46 | 54.04198 | -21.13819 | 39098 ft | 499 kts | 94° |
| 2026-05-06 19:47 | 54.03816 | -21.02109 | 39099 ft | 499 kts | 94° |
| 2026-05-06 19:47 | 54.03421 | -20.90316 | 39099 ft | 499 kts | 95° |
| 2026-05-06 19:48 | 54.03014 | -20.78533 | 39090 ft | 499 kts | 95° |
| 2026-05-06 19:48 | 54.02596 | -20.66760 | 39090 ft | 499 kts | 95° |
| 2026-05-06 19:49 | 54.02168 | -20.55061 | 39091 ft | 499 kts | 95° |
| 2026-05-06 19:49 | 54.01727 | -20.43299 | 39096 ft | 498 kts | 95° |
| 2026-05-06 19:50 | 54.01284 | -20.31552 | 39097 ft | 498 kts | 95° |
| 2026-05-06 19:50 | 54.00832 | -20.19812 | 39074 ft | 497 kts | 95° |
| 2026-05-06 19:51 | 54.00316 | -20.08166 | 39026 ft | 497 kts | 98° |
| 2026-05-06 19:51 | 53.99193 | -19.96602 | 39029 ft | 495 kts | 103° |
| 2026-05-06 19:52 | 53.97401 | -19.85343 | 39014 ft | 493 kts | 109° |
| 2026-05-06 19:52 | 53.95426 | -19.74190 | 39024 ft | 493 kts | 108° |
| 2026-05-06 19:53 | 53.93478 | -19.63095 | 39027 ft | 493 kts | 108° |
| 2026-05-06 19:53 | 53.91494 | -19.51958 | 39032 ft | 493 kts | 108° |
| 2026-05-06 19:54 | 53.89490 | -19.40843 | 39012 ft | 493 kts | 109° |
| 2026-05-06 19:54 | 53.87475 | -19.29737 | 39020 ft | 493 kts | 109° |
| 2026-05-06 19:55 | 53.85467 | -19.18717 | 39022 ft | 493 kts | 109° |
| 2026-05-06 19:55 | 53.83438 | -19.07646 | 39013 ft | 492 kts | 109° |
| 2026-05-06 19:56 | 53.81397 | -18.96601 | 39018 ft | 492 kts | 109° |
| 2026-05-06 19:56 | 53.79349 | -18.85569 | 39012 ft | 492 kts | 109° |
| 2026-05-06 19:57 | 53.77293 | -18.74542 | 38999 ft | 491 kts | 109° |
| 2026-05-06 19:57 | 53.75241 | -18.63602 | 39008 ft | 491 kts | 109° |
| 2026-05-06 19:58 | 53.73165 | -18.52612 | 39004 ft | 491 kts | 109° |
| 2026-05-06 19:58 | 53.71076 | -18.41620 | 39000 ft | 492 kts | 109° |
| 2026-05-06 19:59 | 53.68977 | -18.30644 | 39003 ft | 492 kts | 109° |
| 2026-05-06 19:59 | 53.66882 | -18.19746 | 39003 ft | 492 kts | 109° |
| 2026-05-06 20:00 | 53.64764 | -18.08777 | 39001 ft | 492 kts | 109° |
| 2026-05-06 20:00 | 53.62633 | -17.97824 | 39012 ft | 492 kts | 109° |
| 2026-05-06 20:01 | 53.60493 | -17.86875 | 39004 ft | 492 kts | 109° |
| 2026-05-06 20:01 | 53.58357 | -17.76010 | 39005 ft | 493 kts | 110° |
| 2026-05-06 20:02 | 53.56196 | -17.65081 | 39010 ft | 492 kts | 109° |
| 2026-05-06 20:02 | 53.54029 | -17.54169 | 39017 ft | 492 kts | 109° |
| 2026-05-06 20:03 | 53.51850 | -17.43271 | 39015 ft | 492 kts | 109° |
| 2026-05-06 20:03 | 53.49677 | -17.32466 | 39001 ft | 492 kts | 110° |
| 2026-05-06 20:04 | 53.47482 | -17.21585 | 39014 ft | 493 kts | 109° |
| 2026-05-06 20:04 | 53.45275 | -17.10706 | 39018 ft | 492 kts | 109° |
| 2026-05-06 20:05 | 53.43052 | -16.99870 | 39000 ft | 491 kts | 109° |
| 2026-05-06 20:05 | 53.40825 | -16.89034 | 39000 ft | 491 kts | 109° |
| 2026-05-06 20:06 | 53.38606 | -16.78298 | 39000 ft | 491 kts | 109° |
| 2026-05-06 20:06 | 53.36363 | -16.67500 | 39001 ft | 491 kts | 109° |
| 2026-05-06 20:07 | 53.34111 | -16.56716 | 38993 ft | 491 kts | 109° |
| 2026-05-06 20:07 | 53.31849 | -16.45946 | 38992 ft | 491 kts | 109° |
| 2026-05-06 20:08 | 53.29590 | -16.35254 | 38997 ft | 491 kts | 109° |
| 2026-05-06 20:08 | 53.27306 | -16.24497 | 38993 ft | 491 kts | 110° |
| 2026-05-06 20:09 | 53.25011 | -16.13742 | 38995 ft | 491 kts | 110° |
| 2026-05-06 20:09 | 53.22707 | -16.02998 | 38998 ft | 492 kts | 110° |
| 2026-05-06 20:10 | 53.20408 | -15.92340 | 38997 ft | 492 kts | 109° |
| 2026-05-06 20:10 | 53.18084 | -15.81607 | 39005 ft | 492 kts | 109° |
| 2026-05-06 20:11 | 53.15757 | -15.70901 | 38986 ft | 491 kts | 110° |
| 2026-05-06 20:11 | 53.13410 | -15.60211 | 38993 ft | 491 kts | 110° |
| 2026-05-06 20:12 | 53.11074 | -15.49606 | 38995 ft | 491 kts | 110° |
| 2026-05-06 20:12 | 53.08715 | -15.38929 | 38992 ft | 492 kts | 110° |
| 2026-05-06 20:13 | 53.06346 | -15.28261 | 38994 ft | 492 kts | 110° |
| 2026-05-06 20:13 | 53.03961 | -15.17609 | 39001 ft | 491 kts | 110° |
| 2026-05-06 20:14 | 53.01610 | -15.07039 | 39007 ft | 491 kts | 108° |
| 2026-05-06 20:14 | 53.00171 | -14.96006 | 38992 ft | 489 kts | 94° |
| 2026-05-06 20:15 | 53.00025 | -14.84745 | 38988 ft | 488 kts | 88° |
| 2026-05-06 20:15 | 53.00079 | -14.73471 | 38983 ft | 489 kts | 88° |
| 2026-05-06 20:16 | 53.00102 | -14.62267 | 38990 ft | 489 kts | 89° |
| 2026-05-06 20:16 | 53.00107 | -14.50982 | 38990 ft | 489 kts | 89° |
| 2026-05-06 20:17 | 53.00101 | -14.39697 | 38991 ft | 489 kts | 89° |
| 2026-05-06 20:17 | 53.00087 | -14.28415 | 38990 ft | 489 kts | 89° |
| 2026-05-06 20:18 | 53.00061 | -14.17207 | 38991 ft | 489 kts | 89° |
| 2026-05-06 20:18 | 53.00026 | -14.05922 | 38983 ft | 489 kts | 89° |
| 2026-05-06 20:19 | 52.99575 | -13.94662 | 38985 ft | 490 kts | 97° |
| 2026-05-06 20:19 | 52.98589 | -13.83466 | 38990 ft | 490 kts | 97° |
| 2026-05-06 20:20 | 52.97644 | -13.72332 | 38955 ft | 491 kts | 97° |
| 2026-05-06 20:20 | 52.96691 | -13.61134 | 38948 ft | 490 kts | 97° |
| 2026-05-06 20:21 | 52.95730 | -13.49943 | 38946 ft | 490 kts | 97° |
| 2026-05-06 20:21 | 52.94751 | -13.38754 | 38951 ft | 490 kts | 97° |
| 2026-05-06 20:22 | 52.93762 | -13.27651 | 38950 ft | 490 kts | 97° |
| 2026-05-06 20:22 | 52.92760 | -13.16481 | 38951 ft | 490 kts | 97° |
| 2026-05-06 20:23 | 52.91749 | -13.05327 | 38948 ft | 489 kts | 97° |
| 2026-05-06 20:23 | 52.90725 | -12.94181 | 38950 ft | 489 kts | 97° |
| 2026-05-06 20:24 | 52.89691 | -12.83041 | 38948 ft | 489 kts | 97° |
| 2026-05-06 20:24 | 52.88652 | -12.71985 | 38949 ft | 489 kts | 98° |
| 2026-05-06 20:25 | 52.87598 | -12.60860 | 38949 ft | 489 kts | 97° |
| 2026-05-06 20:25 | 52.86536 | -12.49744 | 38947 ft | 489 kts | 98° |
| 2026-05-06 20:26 | 52.85462 | -12.38642 | 38950 ft | 488 kts | 98° |
| 2026-05-06 20:26 | 52.84388 | -12.27632 | 38951 ft | 488 kts | 98° |
| 2026-05-06 20:27 | 52.83296 | -12.16555 | 38951 ft | 488 kts | 98° |
| 2026-05-06 20:27 | 52.82193 | -12.05486 | 38949 ft | 488 kts | 98° |
| 2026-05-06 20:28 | 52.81081 | -11.94430 | 38949 ft | 488 kts | 98° |
| 2026-05-06 20:28 | 52.79967 | -11.83458 | 38951 ft | 487 kts | 98° |
| 2026-05-06 20:29 | 52.78835 | -11.72423 | 38945 ft | 487 kts | 98° |
| 2026-05-06 20:29 | 52.77693 | -11.61390 | 38945 ft | 487 kts | 98° |
| 2026-05-06 20:30 | 52.75966 | -11.44921 | 38943 ft | 487 kts | 98° |
| 2026-05-06 20:31 | 52.74797 | -11.33907 | 38947 ft | 488 kts | 98° |
| 2026-05-06 20:31 | 52.73619 | -11.22882 | 38946 ft | 488 kts | 98° |
| 2026-05-06 20:32 | 52.72429 | -11.11861 | 38944 ft | 488 kts | 99° |
| 2026-05-06 20:32 | 52.71431 | -11.02701 | 38947 ft | 488 kts | 99° |
| 2026-05-06 20:33 | 52.70026 | -10.89903 | 38946 ft | 488 kts | 99° |
| 2026-05-06 20:33 | 52.68804 | -10.78887 | 38949 ft | 488 kts | 99° |
| 2026-05-06 20:34 | 52.67782 | -10.69740 | 38945 ft | 488 kts | 99° |
| 2026-05-06 20:34 | 52.66542 | -10.58739 | 38942 ft | 488 kts | 99° |
| 2026-05-06 20:35 | 52.65088 | -10.45961 | 38949 ft | 488 kts | 99° |
| 2026-05-06 20:35 | 52.64040 | -10.36830 | 38949 ft | 488 kts | 99° |
| 2026-05-06 20:36 | 52.62768 | -10.25850 | 38948 ft | 488 kts | 99° |
| 2026-05-06 20:36 | 52.61487 | -10.14884 | 38946 ft | 488 kts | 99° |
| 2026-05-06 20:37 | 52.60198 | -10.03922 | 38951 ft | 488 kts | 99° |
| 2026-05-06 20:37 | 52.58907 | -9.93041 | 38947 ft | 488 kts | 100° |
| 2026-05-06 20:38 | 52.57597 | -9.82095 | 38947 ft | 488 kts | 100° |
| 2026-05-06 20:38 | 52.56277 | -9.71160 | 38948 ft | 488 kts | 100° |
| 2026-05-06 20:39 | 52.54949 | -9.60224 | 38947 ft | 488 kts | 100° |
| 2026-05-06 20:39 | 52.53616 | -9.49362 | 38950 ft | 488 kts | 100° |
| 2026-05-06 20:40 | 52.52264 | -9.38423 | 38944 ft | 489 kts | 100° |
| 2026-05-06 20:40 | 52.50900 | -9.27484 | 38947 ft | 489 kts | 100° |
| 2026-05-06 20:41 | 52.49525 | -9.16538 | 38948 ft | 490 kts | 101° |
| 2026-05-06 20:41 | 52.48139 | -9.05593 | 38945 ft | 490 kts | 101° |
| 2026-05-06 20:42 | 52.46750 | -8.94718 | 38952 ft | 491 kts | 101° |
| 2026-05-06 20:42 | 52.45345 | -8.83770 | 38954 ft | 491 kts | 101° |
| 2026-05-06 20:43 | 52.43925 | -8.72826 | 38955 ft | 491 kts | 101° |
| 2026-05-06 20:43 | 52.42498 | -8.61891 | 38952 ft | 491 kts | 101° |
| 2026-05-06 20:44 | 52.41066 | -8.51040 | 38949 ft | 490 kts | 101° |
| 2026-05-06 20:44 | 52.39620 | -8.40134 | 38959 ft | 490 kts | 101° |
| 2026-05-06 20:45 | 52.38166 | -8.29235 | 38958 ft | 490 kts | 101° |
| 2026-05-06 20:45 | 52.36702 | -8.18347 | 38959 ft | 490 kts | 102° |
| 2026-05-06 20:46 | 52.35230 | -8.07541 | 38961 ft | 490 kts | 102° |
| 2026-05-06 20:46 | 52.33743 | -7.96667 | 38964 ft | 490 kts | 102° |
| 2026-05-06 20:47 | 52.32247 | -7.85804 | 38961 ft | 490 kts | 102° |
| 2026-05-06 20:47 | 52.30744 | -7.74955 | 38968 ft | 489 kts | 102° |
| 2026-05-06 20:48 | 52.29239 | -7.64183 | 38964 ft | 490 kts | 102° |
| 2026-05-06 20:48 | 52.27714 | -7.53337 | 38966 ft | 490 kts | 102° |
| 2026-05-06 20:49 | 52.26176 | -7.42490 | 38973 ft | 490 kts | 102° |
| 2026-05-06 20:49 | 52.24628 | -7.31650 | 38975 ft | 491 kts | 102° |
| 2026-05-06 20:50 | 52.23079 | -7.20884 | 38973 ft | 491 kts | 102° |
| 2026-05-06 20:50 | 52.21511 | -7.10050 | 38972 ft | 491 kts | 102° |
| 2026-05-06 20:51 | 52.19931 | -6.99211 | 38972 ft | 492 kts | 103° |
| 2026-05-06 20:51 | 52.18339 | -6.88374 | 38973 ft | 492 kts | 103° |
| 2026-05-06 20:52 | 52.16749 | -6.77612 | 38976 ft | 492 kts | 103° |
| 2026-05-06 20:52 | 52.15136 | -6.66776 | 38977 ft | 492 kts | 103° |
| 2026-05-06 20:53 | 52.13512 | -6.55949 | 38978 ft | 492 kts | 103° |
| 2026-05-06 20:53 | 52.11881 | -6.45141 | 38973 ft | 492 kts | 103° |
| 2026-05-06 20:54 | 52.10249 | -6.34399 | 38973 ft | 492 kts | 103° |
| 2026-05-06 20:54 | 52.08605 | -6.23593 | 38971 ft | 492 kts | 103° |
| 2026-05-06 20:55 | 52.06952 | -6.12792 | 38976 ft | 492 kts | 103° |
| 2026-05-06 20:55 | 52.04902 | -6.02175 | 38975 ft | 493 kts | 110° |
| 2026-05-06 20:56 | 52.02175 | -5.91970 | 38972 ft | 493 kts | 115° |
| 2026-05-06 20:56 | 51.99332 | -5.81928 | 38966 ft | 493 kts | 114° |
| 2026-05-06 20:57 | 51.96478 | -5.71810 | 38967 ft | 493 kts | 114° |
| 2026-05-06 20:57 | 51.93610 | -5.61713 | 38967 ft | 493 kts | 114° |
| 2026-05-06 20:58 | 51.90729 | -5.51628 | 38967 ft | 493 kts | 115° |
| 2026-05-06 20:58 | 51.87857 | -5.41616 | 38960 ft | 494 kts | 115° |
| 2026-05-06 20:59 | 51.84956 | -5.31550 | 38958 ft | 494 kts | 115° |
| 2026-05-06 20:59 | 51.82048 | -5.21505 | 38962 ft | 493 kts | 115° |
| 2026-05-06 21:00 | 51.79133 | -5.11476 | 38961 ft | 493 kts | 115° |
| 2026-05-06 21:00 | 51.76280 | -5.01485 | 38965 ft | 493 kts | 113° |
| 2026-05-06 21:01 | 51.73638 | -4.91272 | 38960 ft | 493 kts | 112° |
| 2026-05-06 21:01 | 51.70983 | -4.81072 | 38960 ft | 493 kts | 113° |
| 2026-05-06 21:02 | 51.68288 | -4.70899 | 38963 ft | 494 kts | 113° |
| 2026-05-06 21:02 | 51.65599 | -4.60806 | 38962 ft | 493 kts | 113° |
| 2026-05-06 21:03 | 51.62886 | -4.50667 | 38958 ft | 493 kts | 113° |
| 2026-05-06 21:03 | 51.60165 | -4.40540 | 38950 ft | 493 kts | 114° |
| 2026-05-06 21:04 | 51.57431 | -4.30430 | 38956 ft | 493 kts | 114° |
| 2026-05-06 21:04 | 51.54838 | -4.20232 | 38961 ft | 492 kts | 108° |
| 2026-05-06 21:05 | 51.53279 | -4.09654 | 39001 ft | 490 kts | 99° |
| 2026-05-06 21:05 | 51.52101 | -3.98879 | 38999 ft | 489 kts | 99° |
| 2026-05-06 21:06 | 51.50887 | -3.88130 | 39008 ft | 489 kts | 100° |
| 2026-05-06 21:06 | 51.49653 | -3.77396 | 39001 ft | 489 kts | 100° |
| 2026-05-06 21:07 | 51.48420 | -3.66720 | 38983 ft | 490 kts | 100° |
| 2026-05-06 21:07 | 51.47521 | -3.55913 | 38976 ft | 489 kts | 95° |
| 2026-05-06 21:08 | 51.46909 | -3.45057 | 38979 ft | 489 kts | 95° |
| 2026-05-06 21:08 | 51.46271 | -3.34201 | 38975 ft | 489 kts | 95° |
| 2026-05-06 21:09 | 51.45620 | -3.23348 | 38984 ft | 489 kts | 95° |
| 2026-05-06 21:09 | 51.44966 | -3.12578 | 38978 ft | 488 kts | 95° |
| 2026-05-06 21:10 | 51.44294 | -3.01741 | 38981 ft | 488 kts | 95° |
| 2026-05-06 21:10 | 51.43614 | -2.90913 | 38978 ft | 488 kts | 95° |
| 2026-05-06 21:11 | 51.42926 | -2.80092 | 38974 ft | 488 kts | 96° |
| 2026-05-06 21:11 | 51.42585 | -2.74764 | 38738 ft | 485 kts | 96° |
| 2026-05-06 21:11 | 51.42238 | -2.69398 | 38069 ft | 485 kts | 96° |
| 2026-05-06 21:11 | 51.41886 | -2.64014 | 37225 ft | 485 kts | 96° |
| 2026-05-06 21:12 | 51.41532 | -2.58654 | 36342 ft | 483 kts | 96° |
| 2026-05-06 21:12 | 51.41178 | -2.53309 | 35252 ft | 483 kts | 96° |
| 2026-05-06 21:12 | 51.40817 | -2.47918 | 33834 ft | 491 kts | 96° |
| 2026-05-06 21:12 | 51.40451 | -2.42456 | 32425 ft | 496 kts | 96° |
| 2026-05-06 21:13 | 51.40080 | -2.36964 | 31093 ft | 496 kts | 96° |
| 2026-05-06 21:13 | 51.39706 | -2.31454 | 29720 ft | 498 kts | 96° |
| 2026-05-06 21:13 | 51.39330 | -2.25969 | 28700 ft | 493 kts | 96° |
| 2026-05-06 21:13 | 51.38960 | -2.20620 | 27870 ft | 487 kts | 96° |
| 2026-05-06 21:14 | 51.38585 | -2.15253 | 27082 ft | 483 kts | 96° |
| 2026-05-06 21:14 | 51.38209 | -2.09951 | 26373 ft | 477 kts | 96° |
| 2026-05-06 21:14 | 51.37839 | -2.04704 | 25637 ft | 472 kts | 96° |
| 2026-05-06 21:14 | 51.37473 | -1.99519 | 24897 ft | 466 kts | 96° |
| 2026-05-06 21:15 | 51.37109 | -1.94385 | 24158 ft | 462 kts | 96° |
| 2026-05-06 21:15 | 51.36744 | -1.89311 | 23434 ft | 457 kts | 96° |
| 2026-05-06 21:15 | 51.36381 | -1.84293 | 22694 ft | 452 kts | 96° |
| 2026-05-06 21:15 | 51.36011 | -1.79334 | 21932 ft | 447 kts | 97° |
| 2026-05-06 21:16 | 51.35651 | -1.74498 | 21260 ft | 441 kts | 96° |
| 2026-05-06 21:16 | 51.35297 | -1.69650 | 20498 ft | 437 kts | 96° |
| 2026-05-06 21:16 | 51.34949 | -1.64868 | 19778 ft | 431 kts | 96° |
| 2026-05-06 21:16 | 51.34600 | -1.60131 | 19007 ft | 426 kts | 96° |
| 2026-05-06 21:17 | 51.34252 | -1.55453 | 18251 ft | 421 kts | 97° |
| 2026-05-06 21:17 | 51.33904 | -1.50833 | 17487 ft | 416 kts | 97° |
| 2026-05-06 21:17 | 51.33559 | -1.46270 | 16688 ft | 412 kts | 97° |
| 2026-05-06 21:17 | 51.33216 | -1.41758 | 15938 ft | 406 kts | 96° |
| 2026-05-06 21:18 | 51.32875 | -1.37298 | 15116 ft | 401 kts | 96° |
| 2026-05-06 21:18 | 51.32536 | -1.32890 | 14311 ft | 397 kts | 96° |
| 2026-05-06 21:18 | 51.32204 | -1.28600 | 13545 ft | 392 kts | 96° |
| 2026-05-06 21:18 | 51.31870 | -1.24307 | 12726 ft | 387 kts | 96° |
| 2026-05-06 21:19 | 51.31540 | -1.20071 | 11984 ft | 381 kts | 96° |
| 2026-05-06 21:19 | 51.31279 | -1.15958 | 11682 ft | 363 kts | 91° |
| 2026-05-06 21:19 | 51.31249 | -1.12005 | 11367 ft | 354 kts | 90° |
| 2026-05-06 21:19 | 51.31226 | -1.08106 | 11256 ft | 346 kts | 90° |
| 2026-05-06 21:20 | 51.31197 | -1.04335 | 11130 ft | 332 kts | 90° |
| 2026-05-06 21:20 | 51.31162 | -1.00753 | 10970 ft | 314 kts | 90° |
| 2026-05-06 21:20 | 51.31129 | -0.97343 | 10676 ft | 302 kts | 90° |
| 2026-05-06 21:20 | 51.31112 | -0.94012 | 10126 ft | 297 kts | 86° |
| 2026-05-06 21:21 | 51.31603 | -0.90845 | 9551 ft | 293 kts | 64° |
| 2026-05-06 21:21 | 51.32509 | -0.87952 | 8963 ft | 290 kts | 60° |
| 2026-05-06 21:21 | 51.33737 | -0.85452 | 8349 ft | 285 kts | 38° |
| 2026-05-06 21:21 | 51.35416 | -0.83928 | 7792 ft | 280 kts | 22° |
| 2026-05-06 21:22 | 51.37243 | -0.82968 | 7189 ft | 276 kts | 6° |
| 2026-05-06 21:22 | 51.39121 | -0.83264 | 6596 ft | 272 kts | 340° |
| 2026-05-06 21:22 | 51.40704 | -0.84845 | 5993 ft | 270 kts | 315° |
| 2026-05-06 21:22 | 51.41913 | -0.87109 | 5390 ft | 267 kts | 310° |
| 2026-05-06 21:23 | 51.43095 | -0.89387 | 4814 ft | 264 kts | 310° |
| 2026-05-06 21:23 | 51.43975 | -0.91942 | 4198 ft | 264 kts | 287° |
| 2026-05-06 21:23 | 51.44047 | -0.94854 | 3602 ft | 266 kts | 259° |
| 2026-05-06 21:23 | 51.43294 | -0.97517 | 3014 ft | 269 kts | 232° |
| 2026-05-06 21:24 | 51.41881 | -0.99348 | 2841 ft | 264 kts | 210° |
| 2026-05-06 21:24 | 51.40279 | -1.00892 | 2743 ft | 268 kts | 210° |
| 2026-05-06 21:24 | 51.38686 | -1.02427 | 2634 ft | 267 kts | 210° |
| 2026-05-06 21:24 | 51.37096 | -1.03952 | 2519 ft | 266 kts | 210° |
| 2026-05-06 21:25 | 51.35417 | -1.05158 | 2488 ft | 265 kts | 191° |
| 2026-05-06 21:25 | 51.33596 | -1.05110 | 2477 ft | 263 kts | 163° |
| 2026-05-06 21:25 | 51.32010 | -1.03747 | 2479 ft | 259 kts | 135° |
| 2026-05-06 21:25 | 51.30936 | -1.01473 | 2472 ft | 257 kts | 120° |
| 2026-05-06 21:26 | 51.29967 | -0.99073 | 2469 ft | 257 kts | 121° |
| 2026-05-06 21:26 | 51.29013 | -0.96704 | 2468 ft | 257 kts | 120° |
| 2026-05-06 21:26 | 51.28044 | -0.94302 | 2470 ft | 257 kts | 120° |
| 2026-05-06 21:26 | 51.27075 | -0.91904 | 2471 ft | 257 kts | 121° |
| 2026-05-06 21:27 | 51.26106 | -0.89502 | 2469 ft | 258 kts | 120° |
| 2026-05-06 21:27 | 51.24999 | -0.87267 | 2471 ft | 260 kts | 137° |
| 2026-05-06 21:27 | 51.23405 | -0.85923 | 2470 ft | 263 kts | 164° |
| 2026-05-06 21:27 | 51.21584 | -0.85826 | 2473 ft | 265 kts | 190° |
| 2026-05-06 21:28 | 51.19915 | -0.87008 | 2471 ft | 265 kts | 217° |
| 2026-05-06 21:28 | 51.18742 | -0.89199 | 2469 ft | 264 kts | 244° |
| 2026-05-06 21:28 | 51.18300 | -0.91998 | 2467 ft | 262 kts | 271° |
| 2026-05-06 21:28 | 51.18674 | -0.94790 | 2476 ft | 258 kts | 297° |
| 2026-05-06 21:29 | 51.19779 | -0.96985 | 2468 ft | 254 kts | 324° |
| 2026-05-06 21:29 | 51.21377 | -0.98068 | 2468 ft | 251 kts | 353° |
| 2026-05-06 21:29 | 51.23088 | -0.97793 | 2471 ft | 249 kts | 21° |
| 2026-05-06 21:29 | 51.24584 | -0.96408 | 2468 ft | 249 kts | 34° |
| 2026-05-06 21:30 | 51.26035 | -0.94901 | 2470 ft | 249 kts | 33° |
| 2026-05-06 21:30 | 51.27475 | -0.93500 | 2469 ft | 232 kts | 31° |
| 2026-05-06 21:30 | 51.28806 | -0.92268 | 2465 ft | 211 kts | 30° |
| 2026-05-06 21:30 | 51.30070 | -0.91117 | 2469 ft | 211 kts | 30° |
| 2026-05-06 21:31 | 51.31323 | -0.89987 | 2469 ft | 205 kts | 30° |
| 2026-05-06 21:31 | 51.32518 | -0.88916 | 2465 ft | 189 kts | 30° |
| 2026-05-06 21:31 | 51.33613 | -0.87934 | 2465 ft | 173 kts | 30° |
| 2026-05-06 21:31 | 51.34615 | -0.87027 | 2465 ft | 157 kts | 30° |
| 2026-05-06 21:32 | 51.35546 | -0.86182 | 2481 ft | 157 kts | 30° |
| 2026-05-06 21:32 | 51.37410 | -0.84473 | 2481 ft | 155 kts | 30° |
| 2026-05-06 21:32 | 51.38335 | -0.83629 | 2479 ft | 153 kts | 30° |
| 2026-05-06 21:33 | 51.39257 | -0.82798 | 2478 ft | 154 kts | 30° |
| 2026-05-06 21:33 | 51.40183 | -0.81955 | 2480 ft | 154 kts | 30° |
| 2026-05-06 21:33 | 51.41109 | -0.81107 | 2478 ft | 154 kts | 30° |
| 2026-05-06 21:33 | 51.42038 | -0.80258 | 2477 ft | 154 kts | 29° |
| 2026-05-06 21:34 | 51.42971 | -0.79421 | 2476 ft | 153 kts | 30° |
| 2026-05-06 21:34 | 51.43898 | -0.78580 | 2481 ft | 153 kts | 31° |
| 2026-05-06 21:34 | 51.44823 | -0.77721 | 2479 ft | 153 kts | 30° |
| 2026-05-06 21:34 | 51.45746 | -0.76865 | 2479 ft | 154 kts | 30° |
| 2026-05-06 21:35 | 51.46662 | -0.75984 | 2472 ft | 153 kts | 36° |
| 2026-05-06 21:35 | 51.47331 | -0.74691 | 2484 ft | 155 kts | 63° |
| 2026-05-06 21:35 | 51.47609 | -0.73046 | 2482 ft | 156 kts | 81° |
| 2026-05-06 21:35 | 51.47667 | -0.71297 | 2485 ft | 157 kts | 87° |
| 2026-05-06 21:36 | 51.47664 | -0.69548 | 2486 ft | 158 kts | 88° |
| 2026-05-06 21:36 | 51.47676 | -0.67820 | 2426 ft | 149 kts | 88° |
| 2026-05-06 21:36 | 51.47681 | -0.66247 | 2222 ft | 133 kts | 87° |
| 2026-05-06 21:36 | 51.47690 | -0.64746 | 2055 ft | 137 kts | 87° |
| 2026-05-06 21:37 | 51.47696 | -0.63276 | 1882 ft | 133 kts | 86° |
| 2026-05-06 21:37 | 51.47699 | -0.61787 | 1710 ft | 128 kts | 88° |
| 2026-05-06 21:37 | 51.47705 | -0.60301 | 1536 ft | 136 kts | 87° |
| 2026-05-06 21:37 | 51.47709 | -0.58838 | 1366 ft | 134 kts | 88° |
| 2026-05-06 21:38 | 51.47699 | -0.57339 | 1355 ft | 138 kts | 89° |
| 2026-05-06 21:38 | 51.47696 | -0.55831 | 1047 ft | 133 kts | 89° |
| 2026-05-06 21:38 | 51.47697 | -0.54359 | 837 ft | 132 kts | 87° |
| 2026-05-06 21:38 | 51.47706 | -0.52883 | 682 ft | 129 kts | 87° |
| 2026-05-06 21:39 | 51.47719 | -0.51420 | 568 ft | 134 kts | 89° |
| 2026-05-06 21:39 | 51.47746 | -0.49942 | 295 ft | 129 kts | 88° |
| 2026-05-06 21:39 | 51.47746 | -0.48458 | 190 ft | 129 kts | 90° |
| 2026-05-06 21:39 | 51.47774 | -0.47088 | 96 ft | 114 kts | 82° |
| 2026-05-06 21:40 | 51.47788 | -0.46082 | 92 ft | 77 kts | 92° |
| 2026-05-06 21:40 | 51.47769 | -0.45355 | 95 ft | 50 kts | 93° |
| 2026-05-06 21:40 | 51.47767 | -0.45046 | 96 ft | 19 kts | 88° |
| 2026-05-06 21:40 | 51.47726 | -0.44876 | 97 ft | 15 kts | 132° |
| 2026-05-06 21:41 | 51.47690 | -0.44831 | 94 ft | 0 kts | 146° |
| 2026-05-06 21:41 | 51.47652 | -0.44790 | 95 ft | 15 kts | 144° |
| 2026-05-06 21:41 | 51.47598 | -0.44875 | 95 ft | 13 kts | 256° |
| 2026-05-06 21:41 | 51.47597 | -0.45039 | 94 ft | 16 kts | 270° |
| 2026-05-06 21:42 | 51.47600 | -0.45220 | 92 ft | 17 kts | 274° |
| 2026-05-06 21:42 | 51.47601 | -0.45408 | 92 ft | 17 kts | 262° |
| 2026-05-06 21:42 | 51.47596 | -0.45602 | 92 ft | 18 kts | 271° |
| 2026-05-06 21:42 | 51.47596 | -0.45805 | 95 ft | 18 kts | 270° |
| 2026-05-06 21:43 | 51.47597 | -0.45973 | 94 ft | 13 kts | 270° |
| 2026-05-06 21:43 | 51.47552 | -0.46065 | 96 ft | 9 kts | 194° |
| 2026-05-06 21:43 | 51.47525 | -0.46014 | 92 ft | 6 kts | 111° |
| 2026-05-06 21:43 | 51.47522 | -0.45919 | 95 ft | 11 kts | 89° |
| 2026-05-06 21:44 | 51.47515 | -0.45884 | 95 ft | 0 kts | 115° |
| 2026-05-06 21:44 | 51.46854 | -0.46338 | 96 ft | 0 kts | 56° |